Time;durP1;ratioP1;P1;durP2;ratioP2;P2;SDS_P1;SDS_P2;PMS_P1;PMS_P2;Temp;Humidity;BMP_temperature;BMP_pressure;BME280_temperature;BME280_humidity;BME280_pressure;Samples;Min_cycle;Max_cycle;Signal;HPM_P1;HPM_P2
2022/07/16 00:01:25;;;;;;;5.97;2.25;;;;;;;11.79;69.12;101247.31;1683223;83;21308;-92
2022/07/16 00:03:58;;;;;;;7.55;3.12;;;;;;;11.78;69.15;101245.08;1671983;84;21549;-91
2022/07/16 00:06:27;;;;;;;11.43;3.85;;;;;;;11.78;69.20;101247.72;1680033;83;21192;-92
2022/07/16 00:08:54;;;;;;;9.18;3.70;;;;;;;11.75;69.27;101243.70;1709843;83;21649;-92
2022/07/16 00:11:21;;;;;;;8.83;3.42;;;;;;;11.75;69.34;101240.14;1673446;83;21108;-92
2022/07/16 00:13:48;;;;;;;7.72;3.42;;;;;;;11.73;69.38;101247.12;1690539;83;21129;-92
2022/07/16 00:16:15;;;;;;;8.53;2.85;;;;;;;11.70;69.44;101241.34;1701345;82;21578;-91
2022/07/16 00:21:30;;;;;;;9.80;2.98;;;;;;;11.63;69.52;101244.22;1698898;83;21787;-92
2022/07/16 00:23:57;;;;;;;7.92;3.47;;;;;;;11.61;69.63;101241.08;1679593;84;21085;-90
2022/07/16 00:26:24;;;;;;;7.25;3.08;;;;;;;11.58;69.82;101247.58;1680704;85;21074;-92
2022/07/16 00:28:51;;;;;;;6.37;2.90;;;;;;;11.55;69.86;101240.91;1717204;83;21092;-94
2022/07/16 00:31:18;;;;;;;7.87;2.67;;;;;;;11.52;69.97;101245.66;1705259;82;21116;-92
2022/07/16 00:33:45;;;;;;;5.70;2.45;;;;;;;11.51;70.03;101241.25;1679611;85;21746;-92
2022/07/16 00:36:12;;;;;;;6.67;2.20;;;;;;;11.47;70.08;101237.63;1679784;84;21053;-92
2022/07/16 00:38:38;;;;;;;6.08;2.70;;;;;;;11.46;70.17;101240.21;1700272;83;21077;-92
2022/07/16 00:41:05;;;;;;;8.50;2.90;;;;;;;11.44;70.18;101244.11;1717674;83;21517;-91
2022/07/16 00:43:52;;;;;;;7.80;2.90;;;;;;;11.40;70.20;101238.29;1717291;83;21125;-91
2022/07/16 00:46:18;;;;;;;4.80;2.77;;;;;;;11.37;70.32;101240.82;1669737;83;21813;-90
2022/07/16 00:48:46;;;;;;;6.00;2.85;;;;;;;11.36;70.39;101234.22;1716907;82;22153;-90
2022/07/16 00:51:16;;;;;;;8.68;3.20;;;;;;;11.34;70.53;101230.21;1689827;83;21078;-90
2022/07/16 00:53:44;;;;;;;8.88;3.33;;;;;;;11.32;70.62;101237.18;1680597;83;21069;-91
2022/07/16 00:56:12;;;;;;;4.35;2.47;;;;;;;11.29;70.69;101235.33;1706744;83;21093;-91
2022/07/16 00:58:40;;;;;;;6.75;2.30;;;;;;;11.28;70.78;101228.28;1702983;82;22585;-91
2022/07/16 01:01:07;;;;;;;6.10;2.22;;;;;;;11.26;70.91;101228.67;1664104;83;21089;-90
2022/07/16 01:03:34;;;;;;;6.08;2.17;;;;;;;11.28;71.06;101226.09;1656449;83;21161;-91
2022/07/16 01:06:02;;;;;;;4.85;2.27;;;;;;;11.29;71.20;101233.13;1676276;83;21086;-91
2022/07/16 01:08:28;;;;;;;6.67;2.12;;;;;;;11.31;71.29;101234.06;1676220;83;21100;-92
2022/07/16 01:10:55;;;;;;;6.42;2.50;;;;;;;11.32;71.36;101227.04;1672588;83;21802;-92
2022/07/16 01:13:26;;;;;;;5.97;2.52;;;;;;;11.34;71.44;101224.05;1667374;83;21112;-92
2022/07/16 01:15:51;;;;;;;7.53;2.55;;;;;;;11.38;71.53;101225.92;1664235;83;22216;-92
2022/07/16 01:18:18;;;;;;;5.90;2.60;;;;;;;11.40;71.60;101221.59;1669097;83;21087;-91
2022/07/16 01:20:45;;;;;;;7.08;2.75;;;;;;;11.41;71.66;101220.72;1667862;83;22073;-91
2022/07/16 01:23:21;;;;;;;6.45;3.00;;;;;;;11.43;71.69;101217.30;1671826;83;22541;-91
2022/07/16 01:25:48;;;;;;;4.85;2.72;;;;;;;11.44;71.75;101214.23;1664003;83;21667;-93
2022/07/16 01:28:17;;;;;;;8.55;2.52;;;;;;;11.45;71.81;101215.60;1664114;83;21066;-91
2022/07/16 01:30:43;;;;;;;4.70;2.45;;;;;;;11.48;71.96;101214.34;1664048;83;21126;-92
2022/07/16 01:33:30;;;;;;;4.70;2.02;;;;;;;11.53;72.04;101214.50;1646813;84;21091;-92
2022/07/16 01:35:59;;;;;;;6.28;1.98;;;;;;;11.58;72.10;101209.34;1667114;83;21741;-92
2022/07/16 01:38:26;;;;;;;6.22;2.33;;;;;;;11.63;72.13;101203.78;1671745;83;21137;-92
2022/07/16 01:40:52;;;;;;;3.90;2.10;;;;;;;11.69;72.20;101207.90;1672859;83;21069;-92
2022/07/16 01:43:22;;;;;;;7.55;1.92;;;;;;;11.73;72.22;101203.20;1663609;83;21138;-92
2022/07/16 01:45:49;;;;;;;5.10;2.08;;;;;;;11.81;72.27;101206.05;1663826;83;21085;-92
2022/07/16 01:48:16;;;;;;;3.45;1.77;;;;;;;11.86;72.30;101205.32;1668442;83;21946;-92
2022/07/16 01:50:43;;;;;;;8.18;2.08;;;;;;;11.94;72.29;101203.35;1669698;85;21141;-92
2022/07/16 01:53:11;;;;;;;8.00;2.47;;;;;;;12.00;72.26;101197.80;1649033;84;21101;-92
2022/07/16 01:55:38;;;;;;;9.33;2.30;;;;;;;12.08;72.21;101197.98;1652631;85;21090;-92
2022/07/16 01:58:06;;;;;;;4.78;1.82;;;;;;;12.14;72.18;101192.86;1653919;84;21094;-91
2022/07/16 02:00:39;;;;;;;8.73;2.17;;;;;;;12.21;72.11;101192.17;1653490;84;21853;-91
2022/07/16 02:03:06;;;;;;;5.42;1.75;;;;;;;12.25;71.99;101186.55;1652822;84;21062;-91
2022/07/16 02:05:32;;;;;;;6.05;1.98;;;;;;;12.27;71.84;101191.88;1655206;84;21161;-92
2022/07/16 02:07:59;;;;;;;6.25;1.90;;;;;;;12.25;71.74;101184.79;1653607;85;21186;-90
2022/07/16 02:10:29;;;;;;;5.35;1.85;;;;;;;12.21;71.72;101185.58;1653592;85;20991;-91
2022/07/16 02:12:58;;;;;;;5.90;2.12;;;;;;;12.20;71.67;101189.48;1653491;84;21791;-91
2022/07/16 02:15:25;;;;;;;3.92;1.90;;;;;;;12.17;71.73;101187.67;1653484;85;21114;-92
2022/07/16 02:17:55;;;;;;;5.97;1.85;;;;;;;12.16;71.69;101188.95;1652698;85;21090;-91
2022/07/16 02:20:21;;;;;;;4.42;1.50;;;;;;;12.16;71.78;101183.27;1651609;85;21086;-92
2022/07/16 02:22:48;;;;;;;2.98;1.60;;;;;;;12.14;71.67;101183.63;1653774;84;21058;-93
2022/07/16 02:25:14;;;;;;;8.98;1.80;;;;;;;12.11;71.68;101180.05;1651682;85;21779;-91
2022/07/16 02:28:05;;;;;;;7.65;2.17;;;;;;;12.08;71.78;101179.52;1652311;85;21078;-91
2022/07/16 02:30:11;;;;;;;5.55;2.00;;;;;;;12.08;71.80;101183.91;1664308;84;21079;-92
2022/07/16 02:32:38;;;;;;;5.72;1.70;;;;;;;12.08;71.91;101179.52;1650977;85;21085;-91
2022/07/16 02:35:07;;;;;;;5.67;1.82;;;;;;;12.09;71.99;101185.68;1683368;83;21926;-91
2022/07/16 02:37:34;;;;;;;6.75;1.72;;;;;;;12.11;72.00;101184.89;1662574;84;21870;-92
2022/07/16 02:40:01;;;;;;;7.50;1.70;;;;;;;12.12;72.05;101180.06;1671647;85;21062;-91
2022/07/16 02:42:28;;;;;;;7.50;1.70;;;;;;;12.15;72.11;101177.95;1648351;86;21533;-90
2022/07/16 02:44:55;;;;;;;4.40;1.67;;;;;;;12.18;72.16;101178.92;1650240;85;21567;-92
2022/07/16 02:47:22;;;;;;;6.42;1.70;;;;;;;12.21;72.09;101172.37;1657116;85;21078;-91
2022/07/16 02:49:51;;;;;;;3.40;1.70;;;;;;;12.23;72.16;101169.34;1659346;85;21669;-92
2022/07/16 02:52:20;;;;;;;6.58;1.70;;;;;;;12.28;72.16;101169.48;1640323;85;22188;-91
2022/07/16 02:54:48;;;;;;;6.97;1.55;;;;;;;12.33;72.21;101166.53;1667543;84;21122;-91
2022/07/16 02:57:15;;;;;;;3.95;1.42;;;;;;;12.35;72.20;101164.81;1667070;84;21100;-91
2022/07/16 02:59:43;;;;;;;4.33;1.47;;;;;;;12.39;72.22;101168.42;1665987;85;21073;-91
2022/07/16 03:02:11;;;;;;;5.17;1.52;;;;;;;12.41;72.17;101174.20;1665271;86;21739;-91
2022/07/16 03:04:38;;;;;;;6.20;1.35;;;;;;;12.43;72.14;101170.28;1665258;86;21080;-91
2022/07/16 03:07:04;;;;;;;4.47;1.70;;;;;;;12.45;72.12;101172.53;1660459;84;21127;-91
2022/07/16 03:09:31;;;;;;;5.53;1.75;;;;;;;12.45;72.09;101164.61;1662476;86;21791;-90
2022/07/16 03:11:58;;;;;;;3.50;1.30;;;;;;;12.46;72.07;101163.73;1659054;85;22302;-93
2022/07/16 03:14:25;;;;;;;5.62;1.82;;;;;;;12.46;72.05;101167.69;1665081;84;21773;-92
2022/07/16 03:16:52;;;;;;;4.50;1.40;;;;;;;12.48;72.03;101166.41;1664703;84;21119;-91
2022/07/16 03:19:19;;;;;;;4.78;1.62;;;;;;;12.50;72.04;101163.38;1659776;85;21077;-91
2022/07/16 03:21:46;;;;;;;6.45;1.70;;;;;;;12.53;72.12;101159.06;1659137;85;21682;-93
2022/07/16 03:24:13;;;;;;;5.30;1.60;;;;;;;12.64;72.08;101163.28;1663581;85;21101;-92
2022/07/16 03:26:40;;;;;;;4.42;1.52;;;;;;;12.71;71.96;101161.25;1664642;85;21792;-92
2022/07/16 03:29:09;;;;;;;3.85;1.90;;;;;;;12.78;71.88;101159.22;1665314;84;21617;-92
2022/07/16 03:31:35;;;;;;;5.53;1.30;;;;;;;12.89;71.96;101155.91;1662620;84;21129;-92
2022/07/16 03:34:02;;;;;;;2.50;1.42;;;;;;;13.09;71.99;101155.03;1659105;85;21690;-91
2022/07/16 03:36:29;;;;;;;6.83;1.82;;;;;;;13.36;72.05;101154.73;1661301;86;21150;-91
2022/07/16 03:39:05;;;;;;;5.90;1.60;;;;;;;13.74;71.93;101150.59;1665178;84;21759;-92
2022/07/16 03:41:36;;;;;;;4.55;1.45;;;;;;;14.73;73.00;101158.44;1664276;85;21110;-92
2022/07/16 03:44:06;;;;;;;5.42;1.57;;;;;;;16.36;73.01;101152.31;1665610;86;21349;-92
2022/07/16 03:46:41;;;;;;;6.60;1.45;;;;;;;18.30;72.31;101146.44;1665260;84;21093;-92
2022/07/16 03:49:08;;;;;;;3.30;1.30;;;;;;;20.21;70.39;101142.95;1663702;85;21087;-92
2022/07/16 03:51:35;;;;;;;4.03;1.40;;;;;;;21.83;67.42;101135.73;1655124;86;21934;-93
2022/07/16 03:54:06;;;;;;;4.45;1.75;;;;;;;22.71;63.82;101133.80;1654820;84;21589;-93
2022/07/16 03:56:33;;;;;;;5.30;1.40;;;;;;;21.92;60.40;101128.46;1673426;85;21095;-94
2022/07/16 03:59:00;;;;;;;5.00;1.50;;;;;;;20.87;59.72;101132.08;1673640;85;21124;-93
2022/07/16 04:01:26;;;;;;;3.60;1.37;;;;;;;19.98;59.37;101136.47;1673604;85;21334;-93
2022/07/16 04:03:54;;;;;;;3.05;1.10;;;;;;;19.47;60.47;101142.11;1672328;83;21811;-93
2022/07/16 04:06:21;;;;;;;3.25;1.20;;;;;;;20.53;62.12;101138.67;1673633;84;21089;-94
2022/07/16 04:08:47;;;;;;;4.33;1.12;;;;;;;22.56;61.94;101132.75;1672165;83;21084;-92
2022/07/16 04:11:17;;;;;;;3.02;1.15;;;;;;;24.28;58.87;101122.75;1671631;83;21399;-92
2022/07/16 04:13:44;;;;;;;1.55;1.00;;;;;;;24.09;56.34;101131.28;1666747;84;21064;-92
2022/07/16 04:16:13;;;;;;;2.80;0.98;;;;;;;24.25;55.65;101127.29;1672178;85;21675;-92
2022/07/16 04:18:39;;;;;;;3.58;1.10;;;;;;;25.66;55.90;101121.96;1673168;85;21003;-93
2022/07/16 04:21:06;;;;;;;2.45;1.27;;;;;;;27.37;54.07;101126.37;1689654;84;21071;-93
2022/07/16 04:23:35;;;;;;;1.55;0.82;;;;;;;28.92;52.28;101121.66;1682642;84;21075;-93
2022/07/16 04:26:02;;;;;;;3.55;1.00;;;;;;;30.32;50.37;101116.30;1682362;83;21107;-94
2022/07/16 04:28:31;;;;;;;1.95;1.10;;;;;;;31.65;48.48;101111.86;1679343;85;21761;-94
2022/07/16 04:30:58;;;;;;;2.33;0.88;;;;;;;32.26;45.63;101106.00;1679639;83;21584;-93
2022/07/16 04:33:29;;;;;;;2.72;1.20;;;;;;;30.73;42.79;101115.08;1682353;83;21572;-93
2022/07/16 04:35:53;;;;;;;1.47;0.70;;;;;;;28.63;42.46;101109.45;1674041;84;21057;-93
2022/07/16 04:38:21;;;;;;;3.20;1.20;;;;;;;26.83;42.83;101110.81;1685556;83;21059;-93
2022/07/16 04:40:47;;;;;;;3.98;0.98;;;;;;;25.63;43.83;101111.30;1689264;84;22254;-93
2022/07/16 04:43:14;;;;;;;2.67;1.20;;;;;;;24.96;44.54;101105.20;1690497;84;21090;-91
2022/07/16 04:45:43;;;;;;;3.02;1.30;;;;;;;24.47;44.52;101103.83;1653911;85;22247;-95
2022/07/16 04:48:13;;;;;;;3.30;1.12;;;;;;;23.72;44.55;101101.69;1682528;85;21508;-94
2022/07/16 04:50:43;;;;;;;2.90;1.00;;;;;;;22.86;45.00;101109.37;1682475;85;21167;-94
2022/07/16 04:53:08;;;;;;;4.75;1.17;;;;;;;22.15;45.62;101097.70;1674992;84;21792;-94
2022/07/16 04:55:35;;;;;;;2.05;1.20;;;;;;;21.57;46.28;101095.94;1670525;85;21189;-94
2022/07/16 04:58:02;;;;;;;1.95;1.15;;;;;;;21.31;47.14;101101.20;1670884;85;21092;-93
2022/07/16 05:00:29;;;;;;;3.52;1.25;;;;;;;21.74;48.65;101100.61;1661805;85;21102;-94
2022/07/16 05:02:59;;;;;;;3.98;1.45;;;;;;;23.62;48.40;101088.94;1663390;85;20973;-94
2022/07/16 05:05:33;;;;;;;5.67;1.55;;;;;;;23.79;46.18;101089.91;1649779;85;21099;-94
2022/07/16 05:08:01;;;;;;;3.00;1.00;;;;;;;23.09;45.79;101085.22;1668184;84;21235;-94
2022/07/16 05:10:32;;;;;;;6.75;2.12;;;;;;;22.34;46.08;101083.55;1692111;82;21125;-93
2022/07/16 05:12:56;;;;;;;2.17;1.30;;;;;;;21.66;46.44;101080.64;1709328;82;21094;-93
2022/07/16 05:15:24;;;;;;;5.53;1.85;;;;;;;21.09;47.09;101074.71;1708126;83;21054;-94
2022/07/16 05:17:51;;;;;;;6.05;1.35;;;;;;;20.71;47.78;101066.72;1690634;83;21901;-94
2022/07/16 05:20:18;;;;;;;4.05;1.77;;;;;;;21.11;48.50;101072.02;1698520;83;21157;-94
2022/07/16 05:22:47;;;;;;;1.37;1.05;;;;;;;22.78;50.87;101059.44;1655567;84;21135;-95
2022/07/16 05:25:28;;;;;;;2.83;1.20;;;;;;;26.02;49.31;101055.19;1634242;85;21446;-93
2022/07/16 05:28:03;;;;;;;2.60;1.07;;;;;;;26.98;44.95;101062.55;1654803;84;21127;-94
2022/07/16 05:30:34;;;;;;;3.90;1.12;;;;;;;25.84;43.53;101059.82;1624611;85;21144;-94
2022/07/16 05:33:12;;;;;;;1.17;0.70;;;;;;;24.50;43.66;101063.87;1661594;84;21752;-94
2022/07/16 05:36:02;;;;;;;3.27;1.07;;;;;;;23.44;44.15;101050.85;1656024;84;21458;-94
2022/07/16 05:38:35;;;;;;;3.67;1.10;;;;;;;22.59;44.82;101061.61;1651308;84;21096;-94
2022/07/16 05:41:05;;;;;;;2.55;1.15;;;;;;;21.80;45.54;101062.98;1659911;84;21474;-94
2022/07/16 05:43:49;;;;;;;1.85;0.90;;;;;;;21.25;46.11;101064.70;1657932;84;21099;-94
2022/07/16 05:46:27;;;;;;;3.52;1.65;;;;;;;20.80;46.88;101058.14;1632676;84;21195;-94
2022/07/16 05:48:53;;;;;;;3.05;1.02;;;;;;;20.61;47.46;101067.75;1647804;84;21096;-94
2022/07/16 05:51:23;;;;;;;3.17;1.25;;;;;;;20.36;47.81;101037.24;1657833;84;21130;-94
2022/07/16 05:53:53;;;;;;;3.33;1.20;;;;;;;20.42;48.16;101059.44;1642299;84;21573;-94
2022/07/16 05:56:25;;;;;;;1.67;0.85;;;;;;;20.53;48.48;101064.22;1659276;86;21788;-94
2022/07/16 05:58:51;;;;;;;4.90;1.15;;;;;;;20.63;48.59;101061.02;1679662;84;21166;-93
2022/07/16 06:01:35;;;;;;;3.25;1.15;;;;;;;20.58;48.60;101065.06;1671791;85;21087;-93
2022/07/16 06:04:06;;;;;;;2.77;1.10;;;;;;;20.41;48.71;101059.91;1675876;83;21060;-92
2022/07/16 06:06:32;;;;;;;2.33;1.00;;;;;;;20.21;48.89;101062.77;1680958;83;21733;-92
2022/07/16 06:09:03;;;;;;;2.22;0.90;;;;;;;19.94;49.20;101063.92;1679345;84;21751;-92
2022/07/16 06:11:33;;;;;;;2.80;1.00;;;;;;;19.70;49.53;101060.97;1687885;84;21086;-93
2022/07/16 06:14:01;;;;;;;1.70;1.10;;;;;;;19.37;49.66;101056.28;1677121;84;21079;-91
2022/07/16 06:16:31;;;;;;;2.10;0.95;;;;;;;18.95;49.90;101037.84;1680736;83;21052;-92
2022/07/16 06:18:58;;;;;;;1.52;0.85;;;;;;;18.86;50.32;101057.89;1657633;85;21146;-91
2022/07/16 06:21:25;;;;;;;3.02;1.20;;;;;;;18.79;50.78;101056.14;1680128;83;21745;-92
2022/07/16 06:23:55;;;;;;;2.65;1.30;;;;;;;18.84;51.20;101061.02;1681803;84;20977;-93
2022/07/16 06:26:22;;;;;;;4.95;1.12;;;;;;;18.97;51.43;101057.39;1682162;84;21091;-94
2022/07/16 06:28:51;;;;;;;1.30;0.80;;;;;;;19.21;51.73;101052.38;1682703;85;21609;-94
2022/07/16 06:31:18;;;;;;;2.17;1.35;;;;;;;19.51;51.44;101039.73;1675029;85;21142;-94
2022/07/16 06:33:45;;;;;;;1.92;0.95;;;;;;;19.89;51.04;101033.23;1679638;85;21675;-95
2022/07/16 06:36:12;;;;;;;2.27;0.93;;;;;;;20.20;50.64;101029.82;1680171;84;21089;-92
2022/07/16 06:38:38;;;;;;;1.47;1.15;;;;;;;20.41;50.24;101031.83;1680052;83;21126;-94
2022/07/16 06:41:07;;;;;;;4.10;1.37;;;;;;;20.65;50.08;101028.48;1672931;85;21508;-92
2022/07/16 06:43:34;;;;;;;2.10;1.17;;;;;;;20.85;49.93;101025.07;1681072;84;20984;-92
2022/07/16 06:46:00;;;;;;;4.12;1.00;;;;;;;21.14;49.70;101023.34;1673720;84;21746;-92
2022/07/16 06:48:27;;;;;;;2.85;1.20;;;;;;;21.42;49.24;101026.08;1675006;84;21064;-93
2022/07/16 06:50:54;;;;;;;4.10;1.10;;;;;;;21.58;49.16;101007.99;1677179;84;21548;-92
2022/07/16 06:53:23;;;;;;;2.72;1.17;;;;;;;21.85;48.61;101022.73;1642166;86;21093;-92
2022/07/16 06:55:50;;;;;;;2.55;1.30;;;;;;;22.01;48.43;101018.84;1621938;86;21058;-92
2022/07/16 06:58:23;;;;;;;1.87;1.02;;;;;;;21.96;47.81;100993.04;1629754;85;22563;-93
2022/07/16 07:00:51;;;;;;;3.47;1.20;;;;;;;22.18;47.76;101006.94;1626951;85;21110;-94
2022/07/16 07:03:31;;;;;;;2.65;0.82;;;;;;;22.44;47.49;101008.67;1626219;85;21077;-92
2022/07/16 07:09:01;;;;;;;3.37;0.88;;;;;;;22.66;47.03;101006.45;1571445;87;21149;-93
2022/07/16 07:11:50;;;;;;;2.90;1.20;;;;;;;22.62;46.82;101010.12;1585107;86;21836;-92
2022/07/16 07:14:21;;;;;;;6.53;0.93;;;;;;;22.58;46.41;101005.73;1572714;88;21719;-92
2022/07/16 07:16:53;;;;;;;5.12;1.00;;;;;;;22.48;46.56;101013.53;1600092;87;21102;-92
2022/07/16 07:19:23;;;;;;;4.35;1.98;;;;;;;22.36;46.52;101009.77;1557695;88;22202;-92
2022/07/16 07:22:08;;;;;;;4.62;1.30;;;;;;;22.20;46.54;101008.66;1600065;87;21134;-92
2022/07/16 07:24:43;;;;;;;4.95;1.12;;;;;;;22.14;46.75;101010.13;1558412;90;21069;-93
2022/07/16 07:30:23;;;;;;;2.22;0.88;;;;;;;22.01;46.76;101006.78;1596231;86;21119;-91
2022/07/16 07:33:03;;;;;;;2.00;0.95;;;;;;;21.81;46.75;101006.25;1591106;85;21263;-93
2022/07/16 07:36:00;;;;;;;3.80;1.10;;;;;;;21.64;47.28;101007.88;1599575;86;21666;-91
2022/07/16 07:38:34;;;;;;;4.03;1.07;;;;;;;21.56;47.49;101001.31;1594887;86;22218;-92
2022/07/16 07:41:15;;;;;;;3.00;1.17;;;;;;;21.27;47.47;100997.75;1593102;86;21142;-92
2022/07/16 07:43:51;;;;;;;2.33;1.10;;;;;;;21.05;47.76;100996.71;1574792;87;21149;-92
2022/07/16 07:46:44;;;;;;;5.37;1.27;;;;;;;20.93;48.01;100998.23;1594899;86;21129;-91
2022/07/16 07:49:10;;;;;;;1.92;1.00;;;;;;;20.79;48.30;101001.08;1576404;87;21735;-93
2022/07/16 07:52:19;;;;;;;4.35;3.83;;;;;;;20.68;48.48;100999.87;1574133;89;21118;-92
2022/07/16 07:55:03;;;;;;;11.80;8.85;;;;;;;20.56;48.53;100993.33;1552194;88;21006;-92
2022/07/16 07:57:35;;;;;;;5.05;2.90;;;;;;;20.31;48.74;101001.64;1607425;86;36228;-92
2022/07/16 08:00:19;;;;;;;5.53;3.47;;;;;;;20.06;49.50;101018.83;1593642;86;21556;-91
2022/07/16 08:02:47;;;;;;;5.67;3.10;;;;;;;19.50;50.09;101024.63;1614681;83;21145;-92
2022/07/16 08:05:41;;;;;;;3.35;2.33;;;;;;;18.95;50.90;101031.17;1637998;85;22293;-91
2022/07/16 08:08:07;;;;;;;6.25;4.75;;;;;;;18.64;51.97;101023.30;1616919;87;22516;-92
2022/07/16 08:10:37;;;;;;;3.47;3.05;;;;;;;18.31;52.62;101020.73;1629390;85;21094;-93
2022/07/16 08:13:10;;;;;;;2.83;2.25;;;;;;;18.06;53.30;101027.00;1624471;85;21201;-93
2022/07/16 08:18:29;;;;;;;2.80;1.90;;;;;;;17.88;54.20;101016.36;1624650;84;21032;-92
2022/07/16 08:21:02;;;;;;;6.12;3.10;;;;;;;18.00;54.48;101011.45;1669094;85;21083;-92
2022/07/16 08:26:24;;;;;;;3.75;1.62;;;;;;;18.23;55.22;101004.77;1674063;84;21569;-91
2022/07/16 08:28:56;;;;;;;4.62;1.77;;;;;;;18.25;55.36;100993.66;1671258;84;21127;-94
2022/07/16 08:31:26;;;;;;;3.80;1.45;;;;;;;18.21;55.62;100984.79;1649376;85;21518;-91
2022/07/16 08:33:57;;;;;;;1.75;1.17;;;;;;;18.20;55.85;100984.78;1675389;85;21391;-92
2022/07/16 08:36:29;;;;;;;3.40;0.82;;;;;;;18.17;56.01;100980.36;1674490;84;21173;-92
2022/07/16 08:39:16;;;;;;;5.63;1.47;;;;;;;18.14;56.35;100980.81;1659423;84;21281;-91
2022/07/16 08:41:44;;;;;;;4.97;1.10;;;;;;;18.16;56.74;100981.70;1668032;85;21115;-92
2022/07/16 08:47:18;;;;;;;1.85;1.45;;;;;;;18.19;56.90;100975.92;1658729;85;21092;-92
2022/07/16 08:50:30;;;;;;;5.15;1.70;;;;;;;18.13;56.90;100974.61;1656935;84;21104;-91
2022/07/16 08:53:06;;;;;;;2.98;1.52;;;;;;;18.03;57.11;100980.38;1658844;84;21130;-92
2022/07/16 08:58:46;;;;;;;3.50;1.05;;;;;;;17.97;57.74;100975.07;1671231;84;21064;-92
2022/07/16 09:01:29;;;;;;;3.45;1.50;;;;;;;17.99;57.68;100967.09;1651976;85;21103;-91
2022/07/16 09:04:01;;;;;;;5.17;1.17;;;;;;;17.99;57.82;100970.62;1660484;85;21076;-92
2022/07/16 09:09:12;;;;;;;1.72;0.72;;;;;;;18.10;58.10;100971.06;1574211;89;21156;-91
2022/07/16 09:11:46;;;;;;;2.05;0.82;;;;;;;18.15;58.21;100970.16;1574029;88;21200;-91
2022/07/16 09:14:15;;;;;;;2.25;0.90;;;;;;;18.23;58.36;100970.14;1645496;85;21050;-91
2022/07/16 09:16:54;;;;;;;3.27;1.40;;;;;;;18.31;58.37;100972.31;1643796;85;21105;-92
2022/07/16 09:19:27;;;;;;;3.35;1.02;;;;;;;18.33;58.33;100966.98;1641118;84;21127;-91
2022/07/16 09:22:10;;;;;;;2.40;1.07;;;;;;;18.38;58.44;100974.53;1638978;86;21057;-90
2022/07/16 09:25:00;;;;;;;3.15;1.12;;;;;;;18.31;58.34;100956.33;1574641;85;21120;-91
2022/07/16 09:27:42;;;;;;;4.28;0.93;;;;;;;18.35;58.58;100975.41;1642241;86;21071;-94
2022/07/16 09:33:01;;;;;;;3.47;0.85;;;;;;;18.23;58.95;100976.34;1593509;87;21108;-92
2022/07/16 09:35:40;;;;;;;5.60;1.10;;;;;;;18.30;59.41;100978.56;1628833;86;21120;-92
2022/07/16 09:38:25;;;;;;;5.03;1.20;;;;;;;18.34;59.38;100974.08;1631880;86;21145;-91
2022/07/16 09:41:06;;;;;;;4.50;1.10;;;;;;;18.30;59.50;100970.56;1630792;86;21113;-92
2022/07/16 09:43:45;;;;;;;3.30;1.25;;;;;;;18.29;59.27;100961.23;1627615;86;21137;-91
2022/07/16 09:46:31;;;;;;;1.67;0.75;;;;;;;18.25;59.10;100963.90;1640691;86;21169;-93
2022/07/16 09:49:14;;;;;;;3.83;1.20;;;;;;;18.21;58.88;100966.59;1640356;85;21340;-93
2022/07/16 09:51:59;;;;;;;5.15;1.27;;;;;;;18.12;58.58;100968.83;1609028;88;21035;-91
2022/07/16 09:54:33;;;;;;;5.55;1.32;;;;;;;18.02;58.59;100973.75;1621505;85;21106;-91
2022/07/16 09:57:25;;;;;;;4.22;1.10;;;;;;;17.91;58.75;100971.09;1622638;87;21109;-91
2022/07/16 09:59:58;;;;;;;3.92;0.98;;;;;;;17.78;58.96;100964.86;1624152;86;21085;-92
2022/07/16 10:02:45;;;;;;;5.17;0.85;;;;;;;17.63;59.34;100967.09;1627771;86;21027;-91
2022/07/16 10:05:07;;;;;;;;;;;;;;;17.55;59.66;100966.64;1626752;86;21400;-90
2022/07/16 10:08:02;;;;;;;3.67;1.22;;;;;;;17.47;60.28;100968.89;1628622;86;20229;-91
2022/07/16 10:10:38;;;;;;;3.62;1.12;;;;;;;17.40;60.27;100966.20;1627450;86;21046;-94
2022/07/16 10:13:06;;;;;;;4.80;1.05;;;;;;;17.34;60.80;100960.88;1625580;86;21071;-92
2022/07/16 10:15:49;;;;;;;3.35;0.90;;;;;;;17.27;60.70;100951.57;1625387;88;21113;-91
2022/07/16 10:18:48;;;;;;;3.27;1.05;;;;;;;17.16;60.80;100946.69;1627277;86;21936;-92
2022/07/16 10:21:28;;;;;;;5.97;1.57;;;;;;;17.07;60.96;100951.99;1626136;86;21166;-91
2022/07/16 10:24:29;;;;;;;5.35;1.10;;;;;;;17.02;61.29;100947.10;1612055;88;21099;-91
2022/07/16 10:29:44;;;;;;;5.25;1.40;;;;;;;17.05;62.08;100945.78;1609094;87;20912;-92
2022/07/16 10:32:36;;;;;;;4.00;1.50;;;;;;;17.02;62.01;100945.77;1620633;86;21014;-93
2022/07/16 10:35:13;;;;;;;4.70;1.20;;;;;;;17.01;62.47;100944.02;1617735;86;21138;-92
2022/07/16 10:37:44;;;;;;;3.42;1.35;;;;;;;17.09;62.99;100940.91;1637357;86;21551;-91
2022/07/16 10:40:27;;;;;;;4.47;1.45;;;;;;;17.21;63.10;100932.05;1638352;85;21106;-92
2022/07/16 10:43:15;;;;;;;3.67;1.60;;;;;;;17.35;63.28;100930.73;1613428;86;21141;-92
2022/07/16 10:45:58;;;;;;;5.72;1.12;;;;;;;17.47;63.00;100928.97;1638025;86;22804;-92
2022/07/16 10:48:30;;;;;;;2.60;1.02;;;;;;;17.60;63.03;100923.62;1641867;87;21110;-92
2022/07/16 10:51:28;;;;;;;3.22;1.12;;;;;;;17.71;62.88;100925.81;1640310;85;21130;-92
2022/07/16 10:54:33;;;;;;;;;;;;;;;;;;;;;
2022/07/16 10:56:59;;;;;;;2.92;1.37;;;;;;;17.90;62.65;100912.05;1666791;84;21112;-94
2022/07/16 10:59:33;;;;;;;2.37;1.12;;;;;;;17.96;62.28;100912.48;1672680;84;23714;-94
2022/07/16 11:02:26;;;;;;;;;;;;;;;;;;;;;
2022/07/16 11:05:06;;;;;;;2.85;1.20;;;;;;;17.86;62.08;100906.30;1665430;84;21173;-91
2022/07/16 11:07:35;;;;;;;5.78;2.17;;;;;;;17.92;62.25;100902.28;1630283;85;21120;-92
2022/07/16 11:10:16;;;;;;;;;;;;;;;;;;;;;
2022/07/16 11:12:45;;;;;;;5.75;1.90;;;;;;;18.14;62.11;100888.91;1669576;84;21879;-92
2022/07/16 11:15:21;;;;;;;4.05;1.30;;;;;;;18.21;62.13;100870.67;1680770;84;20945;-91
2022/07/16 11:18:07;;;;;;;4.85;1.50;;;;;;;18.43;61.81;100882.09;1672212;84;21113;-92
2022/07/16 11:20:45;;;;;;;4.12;1.85;;;;;;;18.57;61.92;100875.38;1671421;84;21139;-91
2022/07/16 11:23:27;;;;;;;5.95;1.92;;;;;;;18.64;61.30;100865.11;1672096;85;21099;-92
2022/07/16 11:26:04;;;;;;;3.80;1.82;;;;;;;18.67;61.21;100856.20;1677279;83;21103;-93
2022/07/16 11:28:36;;;;;;;2.83;1.75;;;;;;;18.61;60.88;100850.45;1677998;83;21499;-93
2022/07/16 11:31:40;;;;;;;;;;;;;;;;;;;;;
2022/07/16 11:34:19;;;;;;;4.85;1.40;;;;;;;18.38;60.95;100834.16;1652544;84;21036;-93
2022/07/16 11:37:18;;;;;;;4.17;1.52;;;;;;;18.26;60.95;100828.46;1680450;83;21119;-92
2022/07/16 11:40:03;;;;;;;4.05;1.50;;;;;;;18.02;60.70;100817.48;1675964;84;21905;-92
2022/07/16 11:42:32;;;;;;;4.60;1.72;;;;;;;17.76;61.13;100812.67;1674292;83;21087;-90
2022/07/16 11:45:09;;;;;;;5.25;1.90;;;;;;;17.54;61.73;100804.74;1678205;84;21104;-91
2022/07/16 11:47:49;;;;;;;5.08;1.98;;;;;;;17.39;61.99;100812.77;1633969;86;21041;-91
2022/07/16 11:50:30;;;;;;;5.62;2.37;;;;;;;17.03;62.38;100793.31;1647185;85;21174;-92
2022/07/16 11:53:01;;;;;;;8.30;2.95;;;;;;;16.87;63.19;100829.64;1653570;85;21416;-91
2022/07/16 11:55:31;;;;;;;6.53;2.87;;;;;;;16.73;63.79;100843.36;1674583;83;21102;-92
2022/07/16 11:57:58;;;;;;;5.53;1.92;;;;;;;16.61;64.32;100838.47;1673148;84;21577;-93
2022/07/16 12:00:51;;;;;;;3.75;1.52;;;;;;;16.54;64.84;100841.98;1678746;84;21266;-93
2022/07/16 12:03:26;;;;;;;3.55;1.80;;;;;;;16.52;65.01;100843.31;1697871;83;21006;-92
2022/07/16 12:06:08;;;;;;;6.90;2.27;;;;;;;16.60;65.51;100838.01;1643468;85;22704;-93
2022/07/16 12:08:58;;;;;;;2.77;1.32;;;;;;;16.65;65.46;100836.70;1663660;84;21082;-94
2022/07/16 12:11:44;;;;;;;10.95;8.00;;;;;;;16.61;65.30;100834.90;1662276;85;21040;-91
2022/07/16 12:14:23;;;;;;;2.20;1.47;;;;;;;16.44;65.23;100850.39;1666757;85;21108;-92
2022/07/16 12:17:07;;;;;;;4.87;2.27;;;;;;;16.12;64.92;100847.19;1662531;85;22363;-93
2022/07/16 12:19:44;;;;;;;4.10;1.90;;;;;;;15.94;65.39;100850.64;1660796;85;21112;-93
2022/07/16 12:22:39;;;;;;;4.37;1.45;;;;;;;15.94;65.79;100851.97;1668460;84;21187;-92
2022/07/16 12:25:43;;;;;;;4.50;2.85;;;;;;;15.97;65.88;100856.39;1667101;84;21131;-92
2022/07/16 12:28:30;;;;;;;3.40;1.10;;;;;;;15.99;65.79;100852.42;1663337;85;21092;-93